HomeShort term forecast

Short term forecast

Graphical weather forecast for the next 48 hours for Montreal:
Short term forecast
This weather forecast is automatically refreshed every 3 hours.

Hourly Experimental Forecast for the next 48 hours ®

Overall summary: Mostly cloudy until tomorrow morning.

 Date & Hour   Temp   Feel   Baro   Hum   Speed & Bearing   Wind Gust   Precip.%   Precip.   Visibility   Cloud cover   Conditions 
 23/09/2018 - 17:00  16.6°C  16.6°C  1024.5 hPa  56%  11.4 km/h   17.3 km/h  4%  0.01 mm/h  16.1km  67%  Mostly Cloudy 
 23/09/2018 - 18:00  16.1°C  16.1°C  1025.3 hPa  58%  11.7 km/h   17.1 km/h  0%  --  16.1km  60%  Mostly Cloudy 
 23/09/2018 - 19:00  14.3°C  14.3°C  1026.5 hPa  62%  16.0 km/h   28.1 km/h  4%  0.01 mm/h  16.1km  67%  Mostly Cloudy 
 23/09/2018 - 20:00  12.9°C  12.9°C  1027.6 hPa  64%  16.9 km/h   30.0 km/h  6%  0.04 mm/h  16.1km  73%  Mostly Cloudy 
 23/09/2018 - 21:00  12.2°C  12.2°C  1028.6 hPa  62%  16.7 km/h   30.2 km/h  3%  0.01 mm/h  16.1km  79%  Mostly Cloudy 
 23/09/2018 - 22:00  11.7°C  11.7°C  1029.4 hPa  57%  17.9 km/h   32.7 km/h  4%  0.02 mm/h  16.1km  81%  Mostly Cloudy 
 23/09/2018 - 23:00  11.2°C  11.2°C  1030.3 hPa  53%  18.1 km/h   33.5 km/h  4%  0.01 mm/h  16.1km  85%  Mostly Cloudy 
 24/09/2018 - 00:00  10.6°C  10.6°C  1031.1 hPa  48%  18.6 km/h   35.2 km/h  0%  --  16.1km  85%  Mostly Cloudy 
 24/09/2018 - 01:00  9.9°C  7.5°C  1031.9 hPa  44%  18.2 km/h   35.8 km/h  4%  0.03 mm/h  16.1km  85%  Mostly Cloudy 
 24/09/2018 - 02:00  9.4°C  6.8°C  1032.5 hPa  42%  18.2 km/h   35.8 km/h  4%  0.03 mm/h  16.1km  83%  Mostly Cloudy 
 24/09/2018 - 03:00  8.8°C  6.1°C  1033.2 hPa  43%  17.8 km/h   37.1 km/h  4%  0.05 mm/h  16.1km  76%  Mostly Cloudy 
 24/09/2018 - 04:00  8.0°C  5.2°C  1033.7 hPa  46%  17.3 km/h   36.5 km/h  3%  0.03 mm/h  16.1km  65%  Mostly Cloudy 
 24/09/2018 - 05:00  7.4°C  4.4°C  1034.1 hPa  49%  17.6 km/h   35.6 km/h  0%  --  16.1km  54%  Partly Cloudy 
 24/09/2018 - 06:00  6.7°C  3.2°C  1034.9 hPa  48%  19.8 km/h   38.4 km/h  0%  --  16.1km  70%  Mostly Cloudy 
 24/09/2018 - 07:00  5.9°C  2.2°C  1035.5 hPa  51%  20.5 km/h   38.6 km/h  2%  0.01 mm/h  16.1km  62%  Mostly Cloudy 
 24/09/2018 - 08:00  6.0°C  2.3°C  1036.0 hPa  50%  20.8 km/h   38.1 km/h  3%  0.01 mm/h  16.1km  50%  Partly Cloudy 
 24/09/2018 - 09:00  7.0°C  3.5°C  1036.2 hPa  47%  20.9 km/h   36.2 km/h  2%  0.01 mm/h  16.1km  34%  Partly Cloudy 
 24/09/2018 - 10:00  8.4°C  5.3°C  1036.2 hPa  43%  20.8 km/h   33.7 km/h  2%  0.01 mm/h  16.1km  14%  Clear 
 24/09/2018 - 11:00  9.9°C  7.2°C  1035.9 hPa  40%  20.5 km/h   31.1 km/h  2%  0.01 mm/h  16.1km  0%  Clear 
 24/09/2018 - 12:00  11.5°C  11.5°C  1035.4 hPa  37%  19.9 km/h   28.5 km/h  0%  --  16.1km  0%  Clear 
 24/09/2018 - 13:00  13.2°C  13.2°C  1034.6 hPa  36%  19.3 km/h   25.8 km/h  0%  --  16.1km  0%  Clear 
 24/09/2018 - 14:00  14.8°C  14.8°C  1034.0 hPa  34%  18.7 km/h   24.0 km/h  0%  --  16.1km  0%  Clear 
 24/09/2018 - 15:00  16.0°C  16.0°C  1033.4 hPa  34%  18.4 km/h   23.1 km/h  0%  --  16.1km  9%  Clear 
 24/09/2018 - 16:00  16.8°C  16.8°C  1032.9 hPa  34%  18.2 km/h   23.0 km/h  0%  --  16.1km  21%  Clear 
 24/09/2018 - 17:00  16.7°C  16.7°C  1032.6 hPa  36%  17.8 km/h   24.0 km/h  0%  --  16.1km  30%  Partly Cloudy 
 24/09/2018 - 18:00  15.7°C  15.7°C  1032.6 hPa  38%  17.3 km/h   27.1 km/h  0%  --  16.1km  29%  Partly Cloudy 
 24/09/2018 - 19:00  14.1°C  14.1°C  1032.8 hPa  41%  16.6 km/h   31.2 km/h  0%  --  16.1km  29%  Partly Cloudy 
 24/09/2018 - 20:00  13.0°C  13.0°C  1033.0 hPa  44%  15.6 km/h   33.9 km/h  0%  --  16.1km  30%  Partly Cloudy 
 24/09/2018 - 21:00  12.3°C  12.3°C  1032.9 hPa  48%  14.1 km/h   33.1 km/h  0%  --  16.1km  35%  Partly Cloudy 
 24/09/2018 - 22:00  11.9°C  11.9°C  1032.6 hPa  53%  12.3 km/h   30.9 km/h  0%  --  16.1km  41%  Partly Cloudy 
 24/09/2018 - 23:00  11.5°C  11.5°C  1032.3 hPa  57%  11.4 km/h   30.3 km/h  0%  --  16.1km  47%  Partly Cloudy 
 25/09/2018 - 00:00  11.4°C  11.4°C  1032.1 hPa  59%  12.4 km/h   33.2 km/h  0%  --  16.1km  48%  Partly Cloudy 
 25/09/2018 - 01:00  11.3°C  11.3°C  1031.7 hPa  61%  14.5 km/h   37.7 km/h  0%  --  16.1km  49%  Partly Cloudy 
 25/09/2018 - 02:00  11.1°C  11.1°C  1031.4 hPa  62%  16.1 km/h   41.1 km/h  0%  --  16.1km  52%  Partly Cloudy 
 25/09/2018 - 03:00  10.5°C  10.5°C  1030.9 hPa  63%  16.6 km/h   42.2 km/h  0%  --  16.1km  56%  Partly Cloudy 
 25/09/2018 - 04:00  9.8°C  7.4°C  1030.4 hPa  65%  16.6 km/h   42.2 km/h  0%  --  16.1km  61%  Mostly Cloudy 
 25/09/2018 - 05:00  9.4°C  6.9°C  1030.0 hPa  65%  16.8 km/h   42.3 km/h  0%  --  16.1km  67%  Mostly Cloudy 
 25/09/2018 - 06:00  9.6°C  7.2°C  1029.6 hPa  63%  17.2 km/h   42.8 km/h  0%  --  16.1km  75%  Mostly Cloudy 
 25/09/2018 - 07:00  10.1°C  10.1°C  1029.3 hPa  61%  17.7 km/h   43.4 km/h  0%  --  16.1km  83%  Mostly Cloudy 
 25/09/2018 - 08:00  10.7°C  10.7°C  1028.7 hPa  61%  18.8 km/h   45.3 km/h  0%  --  16.1km  90%  Mostly Cloudy 
 25/09/2018 - 09:00  10.8°C  10.8°C  1027.8 hPa  66%  21.0 km/h   49.8 km/h  28%  0.23 mm/h  16.1km  94%  Overcast 
 25/09/2018 - 10:00  11.0°C  11.0°C  1026.7 hPa  74%  23.7 km/h   55.6 km/h  60%  1.25 mm/h  16.1km  97%  Light Rain 
 25/09/2018 - 11:00  11.4°C  11.4°C  1025.6 hPa  81%  25.6 km/h   59.7 km/h  72%  2.34 mm/h  16.1km  100%  Rain and Breezy 
 25/09/2018 - 12:00  11.8°C  11.8°C  1024.4 hPa  85%  26.0 km/h   60.9 km/h  78%  2.22 mm/h  16.1km  100%  Rain and Breezy 
 25/09/2018 - 13:00  12.2°C  12.2°C  1023.2 hPa  87%  25.6 km/h   60.3 km/h  78%  1.61 mm/h  16.1km  100%  Rain and Breezy 
 25/09/2018 - 14:00  12.8°C  12.8°C  1022.0 hPa  88%  25.2 km/h   59.2 km/h  72%  1.23 mm/h  16.1km  100%  Light Rain and Breezy 
 25/09/2018 - 15:00  13.3°C  13.3°C  1020.7 hPa  89%  25.2 km/h   57.9 km/h  71%  1.06 mm/h  16.1km  100%  Light Rain and Breezy 
 25/09/2018 - 16:00  13.9°C  13.9°C  1019.4 hPa  90%  25.3 km/h   56.0 km/h  70%  0.93 mm/h  16.1km  100%  Light Rain and Breezy 
Test

 

Past weather and reports

Past weatherFind in this section the past weather conditions, weather archive, graphics, reports and statistics.

Current conditions

Current weather condition for MontrealAll you need to know about the current weather conditions for Montreal. Weather data is updated every 10 minutes.

Weather forecast

Current Montreal weatherSince 2004, celinium.com website has provided accurate weather forecast for Montreal's island.